createdAt,value
2019-04-03T00:01:12.384Z,10.65
2019-04-03T00:03:40.882Z,12.10
2019-04-03T00:06:28.685Z,11.88
2019-04-03T00:08:57.122Z,11.35
2019-04-03T00:11:25.575Z,12.03
2019-04-03T00:13:54.030Z,11.05
2019-04-03T00:16:22.481Z,12.35
2019-04-03T00:18:50.909Z,11.93
2019-04-03T00:21:19.852Z,12.60
2019-04-03T00:23:48.764Z,11.60
2019-04-03T00:26:17.236Z,11.60
2019-04-03T00:28:45.659Z,11.60
2019-04-03T00:31:14.107Z,11.63
2019-04-03T00:33:42.552Z,12.55
2019-04-03T00:36:11.086Z,11.25
2019-04-03T00:38:39.495Z,11.55
2019-04-03T00:41:07.949Z,11.60
2019-04-03T00:43:36.396Z,11.57
2019-04-03T00:46:05.012Z,11.18
2019-04-03T00:48:33.431Z,11.45
2019-04-03T00:51:01.872Z,11.38
2019-04-03T00:53:30.301Z,11.35
2019-04-03T00:55:58.743Z,11.20
2019-04-03T00:58:32.904Z,11.88
2019-04-03T01:01:01.345Z,11.40
2019-04-03T01:03:29.785Z,11.83
2019-04-03T01:05:58.339Z,11.45
2019-04-03T01:08:27.833Z,11.90
2019-04-03T01:10:58.740Z,12.80
2019-04-03T01:13:27.719Z,11.35
2019-04-03T01:15:56.173Z,12.15
2019-04-03T01:18:24.600Z,11.12
2019-04-03T01:20:53.046Z,11.48
2019-04-03T01:23:21.471Z,10.75
2019-04-03T01:25:49.908Z,11.48
2019-04-03T01:28:18.334Z,11.48
2019-04-03T01:30:46.771Z,11.28
2019-04-03T01:33:16.462Z,10.80
2019-04-03T01:35:47.134Z,10.85
2019-04-03T01:38:15.928Z,11.10
2019-04-03T01:40:44.382Z,11.38
2019-04-03T01:43:12.820Z,11.20
2019-04-03T01:45:41.304Z,11.15
2019-04-03T01:48:09.768Z,11.12
2019-04-03T01:50:38.217Z,11.60
2019-04-03T01:53:06.648Z,11.80
2019-04-03T01:55:35.186Z,11.75
2019-04-03T01:58:06.314Z,11.75
2019-04-03T02:00:33.781Z,11.28
2019-04-03T02:03:02.483Z,11.53
2019-04-03T02:05:31.039Z,11.53
2019-04-03T02:07:59.517Z,11.00
2019-04-03T02:10:28.519Z,10.93
2019-04-03T02:12:56.955Z,11.05
2019-04-03T02:15:25.401Z,11.45
2019-04-03T02:17:54.941Z,11.75
2019-04-03T02:20:24.619Z,11.83
2019-04-03T02:22:53.932Z,11.28
2019-04-03T02:25:22.392Z,11.63
2019-04-03T02:27:50.894Z,10.85
2019-04-03T02:30:19.361Z,11.75
2019-04-03T02:32:48.403Z,11.22
2019-04-03T02:35:17.045Z,12.18
2019-04-03T02:37:48.703Z,11.12
2019-04-03T02:40:16.015Z,11.55
2019-04-03T02:42:44.574Z,11.80
2019-04-03T02:45:14.607Z,11.03
2019-04-03T02:47:43.268Z,11.75
2019-04-03T02:50:14.315Z,11.95
2019-04-03T02:52:42.297Z,12.00
2019-04-03T02:55:10.726Z,11.75
2019-04-03T02:57:39.238Z,11.93
2019-04-03T03:00:09.595Z,11.70
2019-04-03T03:02:38.136Z,12.20
2019-04-03T03:05:07.022Z,11.53
2019-04-03T03:07:36.301Z,11.68
2019-04-03T03:10:07.327Z,10.95
2019-04-03T03:12:37.408Z,12.03
2019-04-03T03:15:10.964Z,11.43
2019-04-03T03:17:38.583Z,11.48
2019-04-03T03:20:09.025Z,12.20
2019-04-03T03:22:38.983Z,10.88
2019-04-03T03:25:08.457Z,11.12
2019-04-03T03:27:40.899Z,11.20
2019-04-03T03:30:30.469Z,11.88
2019-04-03T03:32:38.790Z,11.08
2019-04-03T03:35:14.494Z,11.83
2019-04-03T03:37:38.655Z,11.03
2019-04-03T03:40:07.383Z,11.57
2019-04-03T03:42:36.000Z,11.08
2019-04-03T03:45:06.516Z,11.57
2019-04-03T03:47:37.076Z,10.95
2019-04-03T03:50:07.536Z,11.48
2019-04-03T03:52:38.390Z,11.33
2019-04-03T03:55:08.379Z,11.12
2019-04-03T03:57:40.472Z,10.68
2019-04-03T04:00:09.466Z,11.57
2019-04-03T04:02:42.737Z,11.45
2019-04-03T04:05:10.820Z,11.35
2019-04-03T04:07:38.827Z,11.60
2019-04-03T04:10:07.444Z,12.05
2019-04-03T04:12:39.857Z,11.75
2019-04-03T04:15:06.917Z,11.78
2019-04-03T04:17:35.925Z,11.20
2019-04-03T04:20:06.779Z,12.05
2019-04-03T04:22:35.492Z,11.63
2019-04-03T04:25:05.403Z,11.93
2019-04-03T04:27:53.196Z,11.00
2019-04-03T04:30:21.704Z,11.48
2019-04-03T04:32:50.327Z,11.83
2019-04-03T04:35:20.806Z,12.90
2019-04-03T04:37:48.917Z,11.73
2019-04-03T04:40:17.371Z,13.45
2019-04-03T04:42:45.810Z,11.70
2019-04-03T04:45:14.315Z,11.88
2019-04-03T04:47:45.653Z,12.10
2019-04-03T04:50:14.440Z,11.75
2019-04-03T04:52:42.899Z,12.70
2019-04-03T04:55:11.339Z,11.40
2019-04-03T04:57:41.051Z,11.88
2019-04-03T05:00:09.865Z,12.53
2019-04-03T05:02:38.304Z,12.20
2019-04-03T05:05:09.083Z,12.07
2019-04-03T05:07:37.164Z,12.45
2019-04-03T05:10:08.607Z,12.10
2019-04-03T05:12:39.030Z,12.70
2019-04-03T05:15:08.239Z,12.13
2019-04-03T05:17:36.704Z,11.30
2019-04-03T05:20:08.927Z,12.18
2019-04-03T05:22:37.373Z,11.88
2019-04-03T05:25:06.778Z,11.68
2019-04-03T05:27:35.344Z,11.53
2019-04-03T05:30:05.802Z,11.43
2019-04-03T05:32:34.400Z,11.93
2019-04-03T05:35:02.856Z,13.08
2019-04-03T05:37:31.416Z,12.98
2019-04-03T05:39:59.849Z,12.68
2019-04-03T05:42:29.161Z,12.63
2019-04-03T05:44:58.082Z,12.60
2019-04-03T05:47:26.557Z,13.50
2019-04-03T05:49:56.090Z,13.03
2019-04-03T05:52:25.175Z,12.55
2019-04-03T05:54:53.607Z,14.30
2019-04-03T05:57:22.061Z,13.80
2019-04-03T05:59:59.517Z,12.50
2019-04-03T06:02:22.092Z,13.58
2019-04-03T06:04:51.233Z,13.35
2019-04-03T06:07:19.898Z,17.90
2019-04-03T06:09:48.338Z,14.47
2019-04-03T06:12:18.660Z,13.30
2019-04-03T06:14:49.729Z,13.25
2019-04-03T06:17:17.114Z,14.03
2019-04-03T06:19:45.552Z,13.88
2019-04-03T06:22:16.340Z,14.33
2019-04-03T06:24:44.151Z,14.28
2019-04-03T06:27:12.604Z,14.60
2019-04-03T06:29:41.121Z,14.98
2019-04-03T06:32:09.553Z,14.13
2019-04-03T06:34:39.001Z,13.05
2019-04-03T06:37:08.151Z,14.47
2019-04-03T06:39:36.789Z,13.58
2019-04-03T06:42:05.354Z,14.13
2019-04-03T06:44:33.800Z,17.15
2019-04-03T06:47:02.244Z,15.63
2019-04-03T06:49:30.674Z,14.35
2019-04-03T06:51:59.117Z,13.68
2019-04-03T06:54:27.802Z,13.22
2019-04-03T06:56:56.686Z,12.78
2019-04-03T06:59:25.135Z,13.48
2019-04-03T07:01:53.664Z,13.48
2019-04-03T07:04:22.192Z,13.38
2019-04-03T07:06:50.631Z,13.20
2019-04-03T07:09:23.458Z,13.00
2019-04-03T07:11:49.237Z,13.45
2019-04-03T07:14:17.919Z,13.35
2019-04-03T07:16:46.586Z,12.88
2019-04-03T07:19:15.020Z,13.30
2019-04-03T07:21:43.446Z,13.10
2019-04-03T07:24:11.902Z,12.43
2019-04-03T07:26:40.664Z,12.90
2019-04-03T07:29:11.469Z,12.95
2019-04-03T07:31:39.289Z,12.90
2019-04-03T07:34:07.833Z,13.15
2019-04-03T07:36:36.641Z,12.30
2019-04-03T07:39:10.390Z,12.78
2019-04-03T07:41:40.878Z,12.90
2019-04-03T07:44:07.942Z,12.28
2019-04-03T07:46:36.412Z,12.35
2019-04-03T07:49:05.126Z,13.13
2019-04-03T07:51:33.561Z,12.15
2019-04-03T07:54:04.340Z,12.93
2019-04-03T07:56:32.307Z,12.95
2019-04-03T07:59:02.794Z,12.35
2019-04-03T08:01:30.965Z,12.25
2019-04-03T08:03:59.644Z,13.03
2019-04-03T08:06:28.404Z,12.43
2019-04-03T08:09:07.228Z,11.75
2019-04-03T08:11:27.021Z,12.88
2019-04-03T08:13:55.755Z,12.70
2019-04-03T08:16:24.275Z,12.13
2019-04-03T08:18:52.724Z,11.78
2019-04-03T08:21:21.161Z,12.47
2019-04-03T08:23:49.616Z,12.68
2019-04-03T08:26:19.181Z,12.20
2019-04-03T08:28:48.375Z,11.93
2019-04-03T08:31:16.805Z,12.03
2019-04-03T08:33:45.304Z,12.23
2019-04-03T08:36:23.208Z,12.37
2019-04-03T08:38:45.074Z,11.63
2019-04-03T08:41:14.313Z,12.05
2019-04-03T08:43:42.913Z,12.33
2019-04-03T08:46:11.352Z,12.05
2019-04-03T08:48:39.807Z,13.32
2019-04-03T08:51:08.410Z,12.60
2019-04-03T08:53:39.315Z,12.28
2019-04-03T08:56:07.046Z,12.33
2019-04-03T08:58:35.589Z,12.60
2019-04-03T09:01:05.363Z,12.43
2019-04-03T09:03:34.262Z,11.93
2019-04-03T09:06:03.167Z,12.98
2019-04-03T09:08:31.771Z,11.80
2019-04-03T09:11:00.192Z,11.80
2019-04-03T09:13:28.644Z,12.88
2019-04-03T09:15:59.202Z,12.53
2019-04-03T09:18:29.942Z,12.15
2019-04-03T09:20:57.391Z,12.33
2019-04-03T09:23:26.034Z,12.68
2019-04-03T09:25:54.545Z,12.78
2019-04-03T09:28:22.990Z,13.05
2019-04-03T09:30:53.988Z,12.20
2019-04-03T09:33:24.961Z,12.53
2019-04-03T09:35:52.106Z,11.73
2019-04-03T09:38:20.739Z,12.25
2019-04-03T09:40:49.612Z,10.78
2019-04-03T09:43:19.671Z,12.68
2019-04-03T09:45:48.332Z,12.82
2019-04-03T09:48:16.766Z,13.70
2019-04-03T09:50:46.313Z,12.47
2019-04-03T09:53:15.363Z,12.90
2019-04-03T09:55:43.803Z,11.65
2019-04-03T09:58:12.525Z,11.70
2019-04-03T10:00:42.325Z,13.10
2019-04-03T10:03:11.667Z,12.58
2019-04-03T10:05:40.166Z,12.35
2019-04-03T10:08:09.736Z,12.63
2019-04-03T10:10:38.352Z,12.35
2019-04-03T10:13:06.821Z,12.33
2019-04-03T10:15:35.267Z,12.25
2019-04-03T10:18:03.769Z,12.93
2019-04-03T10:20:32.284Z,12.23
2019-04-03T10:23:06.587Z,13.32
2019-04-03T10:25:37.071Z,12.85
2019-04-03T10:28:05.595Z,13.10
2019-04-03T10:30:34.301Z,12.47
2019-04-03T10:33:03.081Z,12.70
2019-04-03T10:35:31.836Z,14.13
2019-04-03T10:38:00.312Z,12.73
2019-04-03T10:40:28.774Z,12.53
2019-04-03T10:42:59.872Z,12.55
2019-04-03T10:45:27.855Z,13.05
2019-04-03T10:47:56.810Z,12.75
2019-04-03T10:50:25.775Z,12.60
2019-04-03T10:52:54.356Z,12.70
2019-04-03T10:55:23.139Z,13.35
2019-04-03T10:57:51.617Z,13.48
2019-04-03T11:00:20.144Z,14.18
2019-04-03T11:02:48.710Z,13.00
2019-04-03T11:05:17.476Z,13.55
2019-04-03T11:07:45.928Z,12.95
2019-04-03T11:10:14.995Z,13.45
2019-04-03T11:12:43.432Z,12.43
2019-04-03T11:15:12.796Z,13.13
2019-04-03T11:17:41.992Z,14.58
2019-04-03T11:20:11.250Z,14.30
2019-04-03T11:25:14.019Z,13.62
2019-04-03T11:27:43.354Z,15.13
2019-04-03T11:30:54.597Z,14.15
2019-04-03T11:30:54.599Z,13.18
2019-04-03T11:32:46.675Z,12.75
2019-04-03T11:35:16.037Z,13.13
2019-04-03T11:37:44.889Z,15.23
2019-04-03T11:40:17.413Z,13.43
2019-04-03T11:42:44.827Z,15.18
2019-04-03T11:45:14.003Z,14.78
2019-04-03T11:48:01.777Z,14.13
2019-04-03T11:50:30.211Z,13.03
2019-04-03T11:53:01.210Z,12.90
2019-04-03T11:55:28.889Z,14.33
2019-04-03T11:57:57.312Z,13.55
2019-04-03T12:00:27.698Z,13.70
2019-04-03T12:02:56.159Z,13.30
2019-04-03T12:05:24.883Z,12.15
2019-04-03T12:07:55.538Z,13.50
2019-04-03T12:10:25.951Z,11.97
2019-04-03T12:12:53.835Z,12.33
2019-04-03T12:15:22.438Z,12.93
2019-04-03T12:17:51.168Z,13.88
2019-04-03T12:20:19.728Z,12.45
2019-04-03T12:22:48.259Z,13.48
2019-04-03T12:25:17.325Z,13.70
2019-04-03T12:27:46.577Z,13.68
2019-04-03T12:30:16.254Z,14.15
2019-04-03T12:32:48.631Z,14.10
2019-04-03T12:35:16.470Z,14.53
2019-04-03T12:37:45.116Z,13.60
2019-04-03T12:40:14.817Z,13.75
2019-04-03T12:42:43.507Z,13.55
2019-04-03T12:45:12.602Z,14.23
2019-04-03T12:47:42.868Z,15.25
2019-04-03T12:50:12.812Z,14.05
2019-04-03T12:52:44.730Z,13.40
2019-04-03T12:55:12.258Z,13.70
2019-04-03T12:57:40.722Z,14.30
2019-04-03T13:00:12.737Z,13.48
2019-04-03T13:02:41.375Z,14.38
2019-04-03T13:05:10.195Z,13.88
2019-04-03T13:07:38.649Z,12.95
2019-04-03T13:10:09.015Z,13.38
2019-04-03T13:12:37.509Z,13.72
2019-04-03T13:15:10.757Z,13.08
2019-04-03T13:17:39.275Z,13.78
2019-04-03T13:20:08.565Z,13.80
2019-04-03T13:22:37.795Z,13.70
2019-04-03T13:25:07.596Z,13.48
2019-04-03T13:27:36.163Z,13.00
2019-04-03T13:30:12.427Z,13.08
2019-04-03T13:32:40.476Z,12.45
2019-04-03T13:35:10.231Z,13.60
2019-04-03T13:37:38.794Z,13.08
2019-04-03T13:40:08.300Z,13.62
2019-04-03T13:42:36.761Z,12.75
2019-04-03T13:45:09.652Z,12.90
2019-04-03T13:47:41.582Z,13.28
2019-04-03T13:50:09.634Z,12.23
2019-04-03T13:52:42.915Z,12.60
2019-04-03T13:55:08.764Z,12.43
2019-04-03T13:57:37.354Z,12.98
2019-04-03T14:00:18.343Z,11.88
2019-04-03T14:02:37.777Z,13.13
2019-04-03T14:05:07.656Z,12.65
2019-04-03T14:07:36.288Z,12.28
2019-04-03T14:10:08.040Z,12.23
2019-04-03T14:12:38.264Z,13.32
2019-04-03T14:15:08.538Z,12.65
2019-04-03T14:17:37.220Z,11.18
2019-04-03T14:20:10.780Z,11.73
2019-04-03T14:22:39.537Z,11.08
2019-04-03T14:25:17.888Z,10.43
2019-04-03T14:27:38.501Z,11.95
2019-04-03T14:30:11.062Z,12.88
2019-04-03T14:32:39.167Z,11.38
2019-04-03T14:35:36.654Z,11.95
2019-04-03T14:37:38.698Z,11.00
2019-04-03T14:40:11.137Z,11.43
2019-04-03T14:42:38.541Z,12.45
2019-04-03T14:45:08.050Z,11.38
2019-04-03T14:47:36.799Z,11.57
2019-04-03T14:50:08.069Z,11.78
2019-04-03T14:52:36.674Z,11.38
2019-04-03T14:55:23.318Z,11.60
2019-04-03T14:57:37.331Z,11.57
2019-04-03T15:00:23.424Z,11.43
2019-04-03T15:02:40.213Z,10.88
2019-04-03T15:05:11.914Z,11.50
2019-04-03T15:07:45.543Z,11.80
2019-04-03T15:10:11.662Z,11.35
2019-04-03T15:12:46.698Z,11.15
2019-04-03T15:15:18.333Z,12.63
2019-04-03T15:17:47.020Z,11.83
2019-04-03T15:20:18.367Z,11.75
2019-04-03T15:22:46.257Z,10.88
2019-04-03T15:25:15.916Z,11.28
2019-04-03T15:27:45.056Z,12.33
2019-04-03T15:30:13.833Z,12.18
2019-04-03T15:32:42.413Z,11.85
2019-04-03T15:35:11.383Z,11.83
2019-04-03T15:37:41.425Z,12.30
2019-04-03T15:40:10.341Z,11.93
2019-04-03T15:42:40.715Z,11.43
2019-04-03T15:45:10.364Z,12.25
2019-04-03T15:47:44.835Z,11.78
2019-04-03T15:50:11.132Z,12.68
2019-04-03T15:52:43.142Z,12.47
2019-04-03T15:55:10.624Z,11.28
2019-04-03T15:57:40.790Z,12.43
2019-04-03T16:00:12.457Z,11.88
2019-04-03T16:02:47.288Z,12.43
2019-04-03T16:05:16.978Z,12.35
2019-04-03T16:07:45.445Z,12.28
2019-04-03T16:10:14.373Z,12.28
2019-04-03T16:12:43.996Z,11.63
2019-04-03T16:15:12.796Z,11.70
2019-04-03T16:17:41.330Z,12.03
2019-04-03T16:20:10.435Z,11.80
2019-04-03T16:22:39.150Z,11.75
2019-04-03T16:25:08.214Z,12.25
2019-04-03T16:27:36.732Z,12.25
2019-04-03T16:30:07.503Z,11.57
2019-04-03T16:32:36.544Z,11.63
2019-04-03T16:35:08.597Z,11.78
2019-04-03T16:37:37.297Z,11.38
2019-04-03T16:40:09.058Z,11.48
2019-04-03T16:42:38.048Z,11.75
2019-04-03T16:45:11.118Z,10.78
2019-04-03T16:47:40.173Z,11.25
2019-04-03T16:50:11.105Z,10.68
2019-04-03T16:52:40.038Z,11.38
2019-04-03T16:55:09.147Z,10.98
2019-04-03T16:57:38.243Z,11.20
2019-04-03T17:00:10.083Z,12.40
2019-04-03T17:02:38.801Z,11.35
2019-04-03T17:05:10.499Z,10.50
2019-04-03T17:07:39.165Z,11.18
2019-04-03T17:10:09.939Z,10.23
2019-04-03T17:12:38.591Z,12.28
2019-04-03T17:15:09.621Z,12.05
2019-04-03T17:17:38.941Z,11.65
2019-04-03T17:20:09.777Z,12.10
2019-04-03T17:22:40.875Z,12.13
2019-04-03T17:25:09.497Z,12.15
2019-04-03T17:27:38.113Z,12.60
2019-04-03T17:30:08.224Z,12.50
2019-04-03T17:32:36.871Z,12.70
2019-04-03T17:35:08.859Z,12.53
2019-04-03T17:37:37.421Z,12.35
2019-04-03T17:40:08.960Z,12.45
2019-04-03T17:42:39.345Z,12.95
2019-04-03T17:45:07.843Z,12.93
2019-04-03T17:47:36.378Z,13.05
2019-04-03T17:50:08.817Z,13.90
2019-04-03T17:52:37.348Z,13.20
2019-04-03T17:55:10.984Z,12.55
2019-04-03T17:57:39.946Z,13.10
2019-04-03T18:00:20.608Z,13.95
2019-04-03T18:02:47.785Z,13.22
2019-04-03T18:05:16.494Z,13.10
2019-04-03T18:07:44.980Z,13.58
2019-04-03T18:10:13.972Z,13.25
2019-04-03T18:12:45.373Z,13.08
2019-04-03T18:15:13.062Z,14.00
2019-04-03T18:17:41.588Z,12.90
2019-04-03T18:20:13.290Z,14.73
2019-04-03T18:22:41.085Z,15.15
2019-04-03T18:25:11.307Z,15.25
2019-04-03T18:27:39.840Z,15.20
2019-04-03T18:30:11.973Z,14.15
2019-04-03T18:32:39.982Z,14.03
2019-04-03T18:35:09.038Z,13.03
2019-04-03T18:37:40.488Z,12.95
2019-04-03T18:40:09.870Z,17.10
2019-04-03T18:42:38.413Z,16.52
2019-04-03T18:45:07.093Z,15.55
2019-04-03T18:47:41.471Z,12.93
2019-04-03T18:50:09.782Z,13.22
2019-04-03T18:52:38.910Z,12.60
2019-04-03T18:55:07.830Z,14.25
2019-04-03T18:57:36.297Z,14.35
2019-04-03T19:00:09.152Z,14.73
2019-04-03T19:02:37.869Z,14.33
2019-04-03T19:05:09.877Z,13.35
2019-04-03T19:07:39.008Z,14.23
2019-04-03T19:10:17.956Z,14.58
2019-04-03T19:12:43.296Z,13.35
2019-04-03T19:15:11.614Z,12.88
2019-04-03T19:17:40.407Z,13.68
2019-04-03T19:20:10.998Z,13.88
2019-04-03T19:22:40.120Z,12.80
2019-04-03T19:25:08.810Z,13.32
2019-04-03T19:27:37.264Z,13.53
2019-04-03T19:30:07.696Z,13.22
2019-04-03T19:32:36.477Z,13.30
2019-04-03T19:35:09.326Z,14.28
2019-04-03T19:37:37.870Z,13.13
2019-04-03T19:40:09.643Z,12.98
2019-04-03T19:42:38.146Z,12.80
2019-04-03T19:45:07.939Z,12.53
2019-04-03T19:47:36.554Z,12.98
2019-04-03T19:50:08.860Z,13.62
2019-04-03T19:52:39.437Z,13.05
2019-04-03T19:55:07.818Z,12.53
2019-04-03T19:57:36.385Z,12.60
2019-04-03T20:00:08.034Z,12.35
2019-04-03T20:02:38.053Z,12.70
2019-04-03T20:05:26.121Z,13.40
2019-04-03T20:07:54.586Z,12.18
2019-04-03T20:10:23.113Z,13.72
2019-04-03T20:12:51.578Z,13.15
2019-04-03T20:15:22.413Z,11.97
2019-04-03T20:17:50.201Z,12.88
2019-04-03T20:20:18.687Z,13.22
2019-04-03T20:22:47.141Z,13.05
2019-04-03T20:25:15.625Z,13.10
2019-04-03T20:27:47.074Z,13.72
2019-04-03T20:30:14.261Z,13.03
2019-04-03T20:32:42.720Z,12.28
2019-04-03T20:35:12.704Z,12.43
2019-04-03T20:37:43.851Z,13.00
2019-04-03T20:40:11.896Z,12.93
2019-04-03T20:42:41.487Z,11.97
2019-04-03T20:45:10.188Z,12.18
2019-04-03T20:47:38.649Z,12.18
2019-04-03T20:50:07.834Z,11.83
2019-04-03T20:52:36.498Z,12.60
2019-04-03T20:55:06.573Z,12.13
2019-04-03T20:57:35.103Z,11.80
2019-04-03T21:00:08.915Z,12.85
2019-04-03T21:02:37.336Z,12.07
2019-04-03T21:05:07.747Z,12.15
2019-04-03T21:07:36.548Z,13.68
2019-04-03T21:10:08.443Z,12.23
2019-04-03T21:12:36.975Z,11.68
2019-04-03T21:15:08.764Z,12.13
2019-04-03T21:17:36.704Z,12.13
2019-04-03T21:20:06.631Z,13.08
2019-04-03T21:22:35.244Z,12.33
2019-04-03T21:25:05.938Z,12.82
2019-04-03T21:27:34.574Z,12.68
2019-04-03T21:30:03.902Z,12.00
2019-04-03T21:32:32.653Z,12.60
2019-04-03T21:35:02.975Z,13.25
2019-04-03T21:37:31.378Z,12.58
2019-04-03T21:40:04.295Z,12.63
2019-04-03T21:42:30.155Z,12.55
2019-04-03T21:44:58.679Z,12.70
2019-04-03T21:47:27.165Z,12.63
2019-04-03T21:49:55.633Z,12.60
2019-04-03T21:52:24.209Z,13.80
2019-04-03T21:54:52.882Z,13.00
2019-04-03T21:57:21.358Z,12.88
2019-04-03T21:59:49.845Z,13.18
2019-04-03T22:02:18.273Z,12.93
2019-04-03T22:04:46.708Z,13.80
2019-04-03T22:07:15.150Z,13.08
2019-04-03T22:09:43.877Z,13.55
2019-04-03T22:12:12.324Z,12.88
2019-04-03T22:14:40.970Z,12.53
2019-04-03T22:17:10.968Z,13.28
2019-04-03T22:19:39.412Z,13.80
2019-04-03T22:22:07.865Z,13.88
2019-04-03T22:24:37.822Z,13.03
2019-04-03T22:27:06.574Z,13.40
2019-04-03T22:29:35.035Z,13.00
2019-04-03T22:32:03.485Z,12.55
2019-04-03T22:34:31.913Z,13.85
2019-04-03T22:37:03.868Z,13.55
2019-04-03T22:39:30.527Z,13.05
2019-04-03T22:41:59.050Z,12.60
2019-04-03T22:44:27.495Z,13.32
2019-04-03T22:46:55.939Z,13.38
2019-04-03T22:49:24.383Z,13.15
2019-04-03T22:51:53.511Z,14.70
2019-04-03T22:54:22.016Z,12.98
2019-04-03T22:56:50.477Z,12.00
2019-04-03T22:59:18.901Z,13.32
2019-04-03T23:01:48.190Z,13.90
2019-04-03T23:04:16.622Z,12.68
2019-04-03T23:06:45.105Z,12.82
2019-04-03T23:09:13.539Z,12.93
2019-04-03T23:11:42.006Z,13.15
2019-04-03T23:14:10.460Z,13.08
2019-04-03T23:16:38.916Z,13.08
2019-04-03T23:19:07.355Z,12.23
2019-04-03T23:21:35.783Z,12.70
2019-04-03T23:24:04.230Z,13.13
2019-04-03T23:26:32.906Z,13.38
2019-04-03T23:29:03.062Z,12.98
2019-04-03T23:31:31.627Z,13.28
2019-04-03T23:34:00.064Z,12.68
2019-04-03T23:36:28.532Z,12.55
2019-04-03T23:38:57.130Z,12.63
2019-04-03T23:41:25.690Z,12.88
2019-04-03T23:43:54.125Z,13.53
2019-04-03T23:46:23.224Z,13.18
2019-04-03T23:48:51.667Z,13.58
2019-04-03T23:51:23.417Z,13.38
2019-04-03T23:53:50.295Z,12.40
2019-04-03T23:56:18.737Z,13.05
2019-04-03T23:58:47.169Z,13.03
